sensor_id;sensor_type;location;lat;lon;timestamp;P1;durP1;ratioP1;P2;durP2;ratioP2
11037;SDS011;5572;49.540;11.932;2024-02-16T00:20:05;0.60;;;0.60;;
11037;SDS011;5572;49.540;11.932;2024-02-16T00:22:52;0.50;;;0.50;;
11037;SDS011;5572;49.540;11.932;2024-02-16T00:37:59;0.40;;;0.40;;
11037;SDS011;5572;49.540;11.932;2024-02-16T00:46:18;0.50;;;0.50;;
11037;SDS011;5572;49.540;11.932;2024-02-16T00:49:14;0.50;;;0.50;;
11037;SDS011;5572;49.540;11.932;2024-02-16T00:51:41;0.50;;;0.50;;
11037;SDS011;5572;49.540;11.932;2024-02-16T00:54:09;0.50;;;0.50;;
11037;SDS011;5572;49.540;11.932;2024-02-16T00:56:36;0.50;;;0.50;;
11037;SDS011;5572;49.540;11.932;2024-02-16T00:59:03;0.40;;;0.40;;
11037;SDS011;5572;49.540;11.932;2024-02-16T01:01:30;0.40;;;0.40;;
11037;SDS011;5572;49.540;11.932;2024-02-16T01:19:16;0.40;;;0.40;;
11037;SDS011;5572;49.540;11.932;2024-02-16T01:21:42;0.67;;;0.67;;
11037;SDS011;5572;49.540;11.932;2024-02-16T01:24:12;0.40;;;0.40;;
11037;SDS011;5572;49.540;11.932;2024-02-16T01:36:04;0.40;;;0.40;;
11037;SDS011;5572;49.540;11.932;2024-02-16T01:38:31;3.53;;;3.33;;
11037;SDS011;5572;49.540;11.932;2024-02-16T01:40:58;0.53;;;0.53;;
11037;SDS011;5572;49.540;11.932;2024-02-16T01:43:25;1.47;;;1.43;;
11037;SDS011;5572;49.540;11.932;2024-02-16T01:45:52;1.07;;;1.07;;
11037;SDS011;5572;49.540;11.932;2024-02-16T01:48:19;9.17;;;8.23;;
11037;SDS011;5572;49.540;11.932;2024-02-16T01:50:46;0.40;;;0.40;;
11037;SDS011;5572;49.540;11.932;2024-02-16T01:53:16;0.40;;;0.40;;
11037;SDS011;5572;49.540;11.932;2024-02-16T01:55:43;0.40;;;0.40;;
11037;SDS011;5572;49.540;11.932;2024-02-16T01:58:10;0.40;;;0.40;;
11037;SDS011;5572;49.540;11.932;2024-02-16T02:00:37;0.50;;;0.50;;
11037;SDS011;5572;49.540;11.932;2024-02-16T02:03:06;0.40;;;0.40;;
11037;SDS011;5572;49.540;11.932;2024-02-16T02:05:32;0.60;;;0.60;;
11037;SDS011;5572;49.540;11.932;2024-02-16T02:08:08;0.50;;;0.50;;
11037;SDS011;5572;49.540;11.932;2024-02-16T02:10:37;0.50;;;0.50;;
11037;SDS011;5572;49.540;11.932;2024-02-16T02:13:03;0.60;;;0.60;;
11037;SDS011;5572;49.540;11.932;2024-02-16T02:15:30;0.40;;;0.40;;
11037;SDS011;5572;49.540;11.932;2024-02-16T02:17:57;0.50;;;0.50;;
11037;SDS011;5572;49.540;11.932;2024-02-16T02:20:25;0.40;;;0.40;;
11037;SDS011;5572;49.540;11.932;2024-02-16T02:23:16;0.40;;;0.40;;
11037;SDS011;5572;49.540;11.932;2024-02-16T02:25:43;0.57;;;0.57;;
11037;SDS011;5572;49.540;11.932;2024-02-16T02:28:09;0.30;;;0.30;;
11037;SDS011;5572;49.540;11.932;2024-02-16T02:30:36;0.80;;;0.80;;
11037;SDS011;5572;49.540;11.932;2024-02-16T02:33:04;0.40;;;0.40;;
11037;SDS011;5572;49.540;11.932;2024-02-16T02:35:31;0.40;;;0.40;;
11037;SDS011;5572;49.540;11.932;2024-02-16T02:37:57;0.40;;;0.40;;
11037;SDS011;5572;49.540;11.932;2024-02-16T02:40:26;0.50;;;0.50;;
11037;SDS011;5572;49.540;11.932;2024-02-16T02:42:52;0.50;;;0.50;;
11037;SDS011;5572;49.540;11.932;2024-02-16T02:45:19;0.40;;;0.40;;
11037;SDS011;5572;49.540;11.932;2024-02-16T02:47:46;0.40;;;0.40;;
11037;SDS011;5572;49.540;11.932;2024-02-16T03:21:17;0.30;;;0.30;;
11037;SDS011;5572;49.540;11.932;2024-02-16T03:23:44;0.30;;;0.30;;
11037;SDS011;5572;49.540;11.932;2024-02-16T03:26:14;0.43;;;0.43;;
11037;SDS011;5572;49.540;11.932;2024-02-16T03:28:43;0.30;;;0.30;;
11037;SDS011;5572;49.540;11.932;2024-02-16T03:31:14;0.37;;;0.37;;
11037;SDS011;5572;49.540;11.932;2024-02-16T03:33:43;0.40;;;0.40;;
11037;SDS011;5572;49.540;11.932;2024-02-16T03:36:09;0.50;;;0.50;;
11037;SDS011;5572;49.540;11.932;2024-02-16T03:38:39;0.40;;;0.40;;
11037;SDS011;5572;49.540;11.932;2024-02-16T03:41:07;0.47;;;0.47;;
11037;SDS011;5572;49.540;11.932;2024-02-16T04:04:19;0.80;;;0.80;;
11037;SDS011;5572;49.540;11.932;2024-02-16T04:06:48;0.50;;;0.50;;
11037;SDS011;5572;49.540;11.932;2024-02-16T04:09:16;5.00;;;3.20;;
11037;SDS011;5572;49.540;11.932;2024-02-16T04:11:44;0.60;;;0.60;;
11037;SDS011;5572;49.540;11.932;2024-02-16T04:14:12;0.50;;;0.50;;
11037;SDS011;5572;49.540;11.932;2024-02-16T04:16:42;0.40;;;0.40;;
11037;SDS011;5572;49.540;11.932;2024-02-16T04:19:10;0.50;;;0.50;;
11037;SDS011;5572;49.540;11.932;2024-02-16T04:21:39;0.40;;;0.40;;
11037;SDS011;5572;49.540;11.932;2024-02-16T04:24:07;0.40;;;0.40;;
11037;SDS011;5572;49.540;11.932;2024-02-16T04:26:35;0.30;;;0.30;;
11037;SDS011;5572;49.540;11.932;2024-02-16T04:29:03;0.40;;;0.40;;
11037;SDS011;5572;49.540;11.932;2024-02-16T04:31:31;0.40;;;0.40;;
11037;SDS011;5572;49.540;11.932;2024-02-16T04:33:59;0.50;;;0.50;;
11037;SDS011;5572;49.540;11.932;2024-02-16T04:36:26;0.40;;;0.40;;
11037;SDS011;5572;49.540;11.932;2024-02-16T04:38:56;0.40;;;0.40;;
11037;SDS011;5572;49.540;11.932;2024-02-16T04:41:24;1.43;;;1.33;;
11037;SDS011;5572;49.540;11.932;2024-02-16T04:43:52;0.50;;;0.50;;
11037;SDS011;5572;49.540;11.932;2024-02-16T04:46:20;0.60;;;0.60;;
11037;SDS011;5572;49.540;11.932;2024-02-16T04:48:49;0.60;;;0.60;;
11037;SDS011;5572;49.540;11.932;2024-02-16T04:51:16;0.97;;;0.97;;
11037;SDS011;5572;49.540;11.932;2024-02-16T04:53:44;0.30;;;0.30;;
11037;SDS011;5572;49.540;11.932;2024-02-16T04:56:15;0.50;;;0.50;;
11037;SDS011;5572;49.540;11.932;2024-02-16T04:58:43;0.20;;;0.20;;
11037;SDS011;5572;49.540;11.932;2024-02-16T05:01:10;0.40;;;0.40;;
11037;SDS011;5572;49.540;11.932;2024-02-16T05:03:40;0.60;;;0.60;;
11037;SDS011;5572;49.540;11.932;2024-02-16T05:06:08;0.83;;;0.83;;
11037;SDS011;5572;49.540;11.932;2024-02-16T05:08:37;0.37;;;0.37;;
11037;SDS011;5572;49.540;11.932;2024-02-16T05:11:05;0.73;;;0.73;;
11037;SDS011;5572;49.540;11.932;2024-02-16T05:13:35;0.93;;;0.93;;
11037;SDS011;5572;49.540;11.932;2024-02-16T05:16:07;0.73;;;0.73;;
11037;SDS011;5572;49.540;11.932;2024-02-16T05:18:36;0.60;;;0.60;;
11037;SDS011;5572;49.540;11.932;2024-02-16T05:21:05;0.40;;;0.40;;
11037;SDS011;5572;49.540;11.932;2024-02-16T05:23:35;0.53;;;0.53;;
11037;SDS011;5572;49.540;11.932;2024-02-16T05:26:03;1.13;;;0.90;;
11037;SDS011;5572;49.540;11.932;2024-02-16T05:28:31;0.47;;;0.47;;
11037;SDS011;5572;49.540;11.932;2024-02-16T05:31:03;0.40;;;0.40;;
11037;SDS011;5572;49.540;11.932;2024-02-16T05:33:40;0.50;;;0.50;;
11037;SDS011;5572;49.540;11.932;2024-02-16T05:36:08;0.30;;;0.30;;
11037;SDS011;5572;49.540;11.932;2024-02-16T05:38:37;0.40;;;0.40;;
11037;SDS011;5572;49.540;11.932;2024-02-16T05:41:08;0.40;;;0.40;;
11037;SDS011;5572;49.540;11.932;2024-02-16T05:43:36;0.50;;;0.50;;
11037;SDS011;5572;49.540;11.932;2024-02-16T05:46:06;0.40;;;0.40;;
11037;SDS011;5572;49.540;11.932;2024-02-16T05:48:38;1.03;;;1.03;;
11037;SDS011;5572;49.540;11.932;2024-02-16T05:51:06;0.87;;;0.87;;
11037;SDS011;5572;49.540;11.932;2024-02-16T05:53:37;1.07;;;1.07;;
11037;SDS011;5572;49.540;11.932;2024-02-16T05:56:06;0.47;;;0.47;;
11037;SDS011;5572;49.540;11.932;2024-02-16T05:58:35;0.40;;;0.40;;
11037;SDS011;5572;49.540;11.932;2024-02-16T06:01:03;0.50;;;0.50;;
11037;SDS011;5572;49.540;11.932;2024-02-16T06:03:32;0.50;;;0.50;;
11037;SDS011;5572;49.540;11.932;2024-02-16T06:06:00;0.50;;;0.50;;
11037;SDS011;5572;49.540;11.932;2024-02-16T06:08:28;1.10;;;1.00;;
11037;SDS011;5572;49.540;11.932;2024-02-16T06:10:56;6.27;;;4.73;;
11037;SDS011;5572;49.540;11.932;2024-02-16T10:07:50;1.70;;;1.70;;
11037;SDS011;5572;49.540;11.932;2024-02-16T10:10:20;2.87;;;2.77;;
11037;SDS011;5572;49.540;11.932;2024-02-16T10:12:48;1.80;;;1.80;;
11037;SDS011;5572;49.540;11.932;2024-02-16T10:15:18;2.30;;;2.20;;
11037;SDS011;5572;49.540;11.932;2024-02-16T10:17:56;1.80;;;1.80;;
11037;SDS011;5572;49.540;11.932;2024-02-16T10:20:23;2.20;;;2.10;;
11037;SDS011;5572;49.540;11.932;2024-02-16T10:23:01;2.10;;;2.10;;
11037;SDS011;5572;49.540;11.932;2024-02-16T10:25:28;1.97;;;1.97;;
11037;SDS011;5572;49.540;11.932;2024-02-16T10:27:55;2.13;;;2.13;;
11037;SDS011;5572;49.540;11.932;2024-02-16T10:30:23;2.10;;;2.10;;
11037;SDS011;5572;49.540;11.932;2024-02-16T10:32:55;2.67;;;2.60;;
11037;SDS011;5572;49.540;11.932;2024-02-16T10:35:21;2.10;;;2.10;;
11037;SDS011;5572;49.540;11.932;2024-02-16T10:37:52;3.13;;;3.03;;
11037;SDS011;5572;49.540;11.932;2024-02-16T10:40:21;2.57;;;2.57;;
11037;SDS011;5572;49.540;11.932;2024-02-16T10:42:49;2.13;;;2.13;;
11037;SDS011;5572;49.540;11.932;2024-02-16T10:45:17;2.20;;;2.20;;
11037;SDS011;5572;49.540;11.932;2024-02-16T10:47:43;2.63;;;2.60;;
11037;SDS011;5572;49.540;11.932;2024-02-16T10:50:10;2.67;;;2.67;;
11037;SDS011;5572;49.540;11.932;2024-02-16T10:52:38;2.73;;;2.63;;
11037;SDS011;5572;49.540;11.932;2024-02-16T10:55:09;2.73;;;2.73;;
11037;SDS011;5572;49.540;11.932;2024-02-16T10:57:36;7.50;;;3.30;;
11037;SDS011;5572;49.540;11.932;2024-02-16T11:00:07;2.53;;;2.53;;
11037;SDS011;5572;49.540;11.932;2024-02-16T11:02:50;2.77;;;2.70;;
11037;SDS011;5572;49.540;11.932;2024-02-16T11:05:18;2.40;;;2.40;;
11037;SDS011;5572;49.540;11.932;2024-02-16T11:07:45;2.90;;;2.80;;
11037;SDS011;5572;49.540;11.932;2024-02-16T11:10:13;2.93;;;2.83;;
11037;SDS011;5572;49.540;11.932;2024-02-16T11:12:42;2.47;;;2.47;;
11037;SDS011;5572;49.540;11.932;2024-02-16T11:15:11;2.70;;;2.70;;
11037;SDS011;5572;49.540;11.932;2024-02-16T11:17:39;2.87;;;2.77;;
11037;SDS011;5572;49.540;11.932;2024-02-16T11:20:06;2.60;;;2.60;;
11037;SDS011;5572;49.540;11.932;2024-02-16T11:22:34;3.50;;;3.40;;
11037;SDS011;5572;49.540;11.932;2024-02-16T11:25:04;3.73;;;3.33;;
11037;SDS011;5572;49.540;11.932;2024-02-16T11:27:34;3.33;;;3.23;;
11037;SDS011;5572;49.540;11.932;2024-02-16T11:30:01;4.63;;;4.27;;
11037;SDS011;5572;49.540;11.932;2024-02-16T11:32:31;2.90;;;2.80;;
11037;SDS011;5572;49.540;11.932;2024-02-16T11:35:04;5.47;;;5.07;;
11037;SDS011;5572;49.540;11.932;2024-02-16T11:37:31;2.60;;;2.60;;
11037;SDS011;5572;49.540;11.932;2024-02-16T11:39:58;10.80;;;6.87;;
11037;SDS011;5572;49.540;11.932;2024-02-16T11:42:24;2.60;;;2.60;;
11037;SDS011;5572;49.540;11.932;2024-02-16T11:44:53;2.40;;;2.40;;
11037;SDS011;5572;49.540;11.932;2024-02-16T11:47:20;3.33;;;3.13;;
11037;SDS011;5572;49.540;11.932;2024-02-16T11:49:59;3.10;;;3.00;;
11037;SDS011;5572;49.540;11.932;2024-02-16T11:52:27;2.13;;;2.13;;
11037;SDS011;5572;49.540;11.932;2024-02-16T11:54:54;3.00;;;2.90;;
11037;SDS011;5572;49.540;11.932;2024-02-16T11:57:22;3.63;;;3.43;;
11037;SDS011;5572;49.540;11.932;2024-02-16T11:59:49;3.43;;;3.33;;
11037;SDS011;5572;49.540;11.932;2024-02-16T12:02:18;2.80;;;2.70;;
11037;SDS011;5572;49.540;11.932;2024-02-16T12:04:46;2.40;;;2.30;;
11037;SDS011;5572;49.540;11.932;2024-02-16T12:07:13;3.30;;;3.20;;
11037;SDS011;5572;49.540;11.932;2024-02-16T12:09:39;2.20;;;2.20;;
11037;SDS011;5572;49.540;11.932;2024-02-16T12:12:06;2.97;;;2.87;;
11037;SDS011;5572;49.540;11.932;2024-02-16T12:14:36;2.23;;;2.23;;
11037;SDS011;5572;49.540;11.932;2024-02-16T12:17:03;2.30;;;2.30;;
11037;SDS011;5572;49.540;11.932;2024-02-16T12:19:31;3.93;;;3.83;;
11037;SDS011;5572;49.540;11.932;2024-02-16T12:21:57;2.50;;;2.50;;
11037;SDS011;5572;49.540;11.932;2024-02-16T12:24:24;3.53;;;3.33;;
11037;SDS011;5572;49.540;11.932;2024-02-16T12:26:51;2.47;;;2.47;;
11037;SDS011;5572;49.540;11.932;2024-02-16T12:29:17;2.50;;;2.50;;
11037;SDS011;5572;49.540;11.932;2024-02-16T12:31:45;3.20;;;3.10;;
11037;SDS011;5572;49.540;11.932;2024-02-16T12:34:13;2.80;;;2.80;;
11037;SDS011;5572;49.540;11.932;2024-02-16T12:36:41;2.80;;;2.80;;
11037;SDS011;5572;49.540;11.932;2024-02-16T12:39:08;3.20;;;3.10;;
11037;SDS011;5572;49.540;11.932;2024-02-16T12:41:37;3.10;;;3.00;;
11037;SDS011;5572;49.540;11.932;2024-02-16T12:44:04;3.10;;;3.00;;
11037;SDS011;5572;49.540;11.932;2024-02-16T12:46:31;2.70;;;2.70;;
11037;SDS011;5572;49.540;11.932;2024-02-16T12:48:58;2.60;;;2.60;;
11037;SDS011;5572;49.540;11.932;2024-02-16T12:51:24;3.20;;;3.10;;
11037;SDS011;5572;49.540;11.932;2024-02-16T12:53:52;2.60;;;2.60;;
11037;SDS011;5572;49.540;11.932;2024-02-16T12:56:19;2.90;;;2.90;;
11037;SDS011;5572;49.540;11.932;2024-02-16T12:58:46;3.20;;;3.10;;
11037;SDS011;5572;49.540;11.932;2024-02-16T13:01:13;3.70;;;3.60;;
11037;SDS011;5572;49.540;11.932;2024-02-16T13:03:43;2.70;;;2.70;;
11037;SDS011;5572;49.540;11.932;2024-02-16T13:06:09;2.90;;;2.90;;
11037;SDS011;5572;49.540;11.932;2024-02-16T13:08:36;4.27;;;3.97;;
11037;SDS011;5572;49.540;11.932;2024-02-16T13:11:05;3.20;;;3.00;;
11037;SDS011;5572;49.540;11.932;2024-02-16T13:13:31;3.70;;;3.60;;
11037;SDS011;5572;49.540;11.932;2024-02-16T13:15:58;3.30;;;3.20;;
11037;SDS011;5572;49.540;11.932;2024-02-16T13:18:25;3.33;;;3.23;;
11037;SDS011;5572;49.540;11.932;2024-02-16T13:20:51;3.20;;;3.10;;
11037;SDS011;5572;49.540;11.932;2024-02-16T13:23:18;3.10;;;3.00;;
11037;SDS011;5572;49.540;11.932;2024-02-16T13:25:44;6.30;;;6.00;;
11037;SDS011;5572;49.540;11.932;2024-02-16T13:28:12;3.20;;;3.10;;
11037;SDS011;5572;49.540;11.932;2024-02-16T13:30:41;3.10;;;3.00;;
11037;SDS011;5572;49.540;11.932;2024-02-16T13:33:07;2.80;;;2.80;;
11037;SDS011;5572;49.540;11.932;2024-02-16T13:35:34;3.90;;;3.70;;
11037;SDS011;5572;49.540;11.932;2024-02-16T13:38:02;3.23;;;3.13;;
11037;SDS011;5572;49.540;11.932;2024-02-16T13:40:28;3.30;;;3.20;;
11037;SDS011;5572;49.540;11.932;2024-02-16T13:42:55;3.80;;;3.70;;
11037;SDS011;5572;49.540;11.932;2024-02-16T13:45:28;3.27;;;3.17;;
11037;SDS011;5572;49.540;11.932;2024-02-16T13:47:56;2.80;;;2.80;;
11037;SDS011;5572;49.540;11.932;2024-02-16T13:50:23;3.03;;;2.93;;
11037;SDS011;5572;49.540;11.932;2024-02-16T13:52:50;4.37;;;4.17;;
11037;SDS011;5572;49.540;11.932;2024-02-16T13:55:17;2.93;;;2.90;;
11037;SDS011;5572;49.540;11.932;2024-02-16T13:57:43;3.40;;;3.30;;
11037;SDS011;5572;49.540;11.932;2024-02-16T14:00:10;3.00;;;2.90;;
11037;SDS011;5572;49.540;11.932;2024-02-16T14:02:41;3.30;;;3.20;;
11037;SDS011;5572;49.540;11.932;2024-02-16T14:05:09;3.00;;;2.90;;
11037;SDS011;5572;49.540;11.932;2024-02-16T14:07:35;2.90;;;2.90;;
11037;SDS011;5572;49.540;11.932;2024-02-16T14:10:02;3.20;;;3.10;;
11037;SDS011;5572;49.540;11.932;2024-02-16T14:12:29;6.60;;;4.40;;
11037;SDS011;5572;49.540;11.932;2024-02-16T14:14:55;2.90;;;2.90;;
11037;SDS011;5572;49.540;11.932;2024-02-16T14:17:22;2.77;;;2.77;;
11037;SDS011;5572;49.540;11.932;2024-02-16T14:19:50;2.80;;;2.80;;
11037;SDS011;5572;49.540;11.932;2024-02-16T14:22:17;3.20;;;3.10;;
11037;SDS011;5572;49.540;11.932;2024-02-16T14:24:46;3.10;;;3.00;;
11037;SDS011;5572;49.540;11.932;2024-02-16T14:27:13;2.93;;;2.90;;
11037;SDS011;5572;49.540;11.932;2024-02-16T14:29:41;3.20;;;3.10;;
11037;SDS011;5572;49.540;11.932;2024-02-16T14:32:08;3.20;;;3.10;;
11037;SDS011;5572;49.540;11.932;2024-02-16T14:34:35;3.10;;;3.00;;
11037;SDS011;5572;49.540;11.932;2024-02-16T14:37:03;3.40;;;3.30;;
11037;SDS011;5572;49.540;11.932;2024-02-16T14:39:30;2.93;;;2.90;;
11037;SDS011;5572;49.540;11.932;2024-02-16T14:41:57;3.10;;;3.00;;
11037;SDS011;5572;49.540;11.932;2024-02-16T14:44:23;2.80;;;2.80;;
11037;SDS011;5572;49.540;11.932;2024-02-16T14:46:50;2.70;;;2.70;;
11037;SDS011;5572;49.540;11.932;2024-02-16T14:49:16;2.60;;;2.60;;
11037;SDS011;5572;49.540;11.932;2024-02-16T14:51:46;2.80;;;2.80;;
11037;SDS011;5572;49.540;11.932;2024-02-16T14:54:14;2.80;;;2.80;;
11037;SDS011;5572;49.540;11.932;2024-02-16T14:56:40;2.60;;;2.60;;
11037;SDS011;5572;49.540;11.932;2024-02-16T14:59:07;2.70;;;2.70;;
11037;SDS011;5572;49.540;11.932;2024-02-16T15:01:35;3.13;;;3.03;;
11037;SDS011;5572;49.540;11.932;2024-02-16T15:04:02;2.50;;;2.50;;
11037;SDS011;5572;49.540;11.932;2024-02-16T15:06:29;2.57;;;2.57;;
11037;SDS011;5572;49.540;11.932;2024-02-16T15:08:58;2.70;;;2.70;;
11037;SDS011;5572;49.540;11.932;2024-02-16T15:11:26;2.40;;;2.40;;
11037;SDS011;5572;49.540;11.932;2024-02-16T15:13:52;2.53;;;2.53;;
11037;SDS011;5572;49.540;11.932;2024-02-16T15:16:19;3.80;;;3.70;;
11037;SDS011;5572;49.540;11.932;2024-02-16T15:18:46;2.60;;;2.60;;
11037;SDS011;5572;49.540;11.932;2024-02-16T15:21:12;2.97;;;2.90;;
11037;SDS011;5572;49.540;11.932;2024-02-16T15:23:39;2.60;;;2.60;;
11037;SDS011;5572;49.540;11.932;2024-02-16T15:26:06;2.50;;;2.50;;
11037;SDS011;5572;49.540;11.932;2024-02-16T15:28:37;2.60;;;2.60;;
11037;SDS011;5572;49.540;11.932;2024-02-16T15:31:04;2.77;;;2.77;;
11037;SDS011;5572;49.540;11.932;2024-02-16T15:33:31;3.10;;;3.00;;
11037;SDS011;5572;49.540;11.932;2024-02-16T15:35:57;2.57;;;2.57;;
11037;SDS011;5572;49.540;11.932;2024-02-16T15:38:24;2.40;;;2.40;;
11037;SDS011;5572;49.540;11.932;2024-02-16T15:40:51;3.57;;;3.47;;
11037;SDS011;5572;49.540;11.932;2024-02-16T15:43:18;3.10;;;2.97;;
11037;SDS011;5572;49.540;11.932;2024-02-16T15:45:46;2.30;;;2.30;;
11037;SDS011;5572;49.540;11.932;2024-02-16T15:48:14;2.40;;;2.40;;
11037;SDS011;5572;49.540;11.932;2024-02-16T15:50:42;2.50;;;2.50;;
11037;SDS011;5572;49.540;11.932;2024-02-16T15:53:09;2.73;;;2.73;;
11037;SDS011;5572;49.540;11.932;2024-02-16T15:55:36;3.33;;;3.23;;
11037;SDS011;5572;49.540;11.932;2024-02-16T15:58:04;13.27;;;10.17;;
11037;SDS011;5572;49.540;11.932;2024-02-16T16:00:31;3.37;;;3.27;;
11037;SDS011;5572;49.540;11.932;2024-02-16T16:06:05;5.57;;;5.27;;
11037;SDS011;5572;49.540;11.932;2024-02-16T16:08:36;3.53;;;3.37;;
11037;SDS011;5572;49.540;11.932;2024-02-16T16:11:06;4.53;;;4.33;;
11037;SDS011;5572;49.540;11.932;2024-02-16T16:13:34;2.60;;;2.60;;
11037;SDS011;5572;49.540;11.932;2024-02-16T16:16:13;2.60;;;2.60;;
11037;SDS011;5572;49.540;11.932;2024-02-16T20:21:48;0.90;;;0.90;;
11037;SDS011;5572;49.540;11.932;2024-02-16T20:24:16;0.50;;;0.50;;
11037;SDS011;5572;49.540;11.932;2024-02-16T20:26:45;0.97;;;0.97;;
11037;SDS011;5572;49.540;11.932;2024-02-16T20:29:13;0.60;;;0.60;;
11037;SDS011;5572;49.540;11.932;2024-02-16T20:31:51;0.73;;;0.73;;
11037;SDS011;5572;49.540;11.932;2024-02-16T22:04:47;0.40;;;0.40;;
11037;SDS011;5572;49.540;11.932;2024-02-16T22:07:13;0.40;;;0.40;;
11037;SDS011;5572;49.540;11.932;2024-02-16T22:09:40;1.07;;;1.07;;
11037;SDS011;5572;49.540;11.932;2024-02-16T22:12:07;0.40;;;0.40;;
11037;SDS011;5572;49.540;11.932;2024-02-16T22:14:33;1.10;;;1.10;;
11037;SDS011;5572;49.540;11.932;2024-02-16T22:17:00;0.50;;;0.50;;
11037;SDS011;5572;49.540;11.932;2024-02-16T22:19:26;0.50;;;0.50;;
11037;SDS011;5572;49.540;11.932;2024-02-16T22:21:54;0.50;;;0.50;;
11037;SDS011;5572;49.540;11.932;2024-02-16T22:24:21;1.83;;;1.73;;
11037;SDS011;5572;49.540;11.932;2024-02-16T22:26:48;0.63;;;0.63;;
11037;SDS011;5572;49.540;11.932;2024-02-16T22:29:15;1.80;;;1.80;;
11037;SDS011;5572;49.540;11.932;2024-02-16T22:31:42;1.45;;;1.45;;
11037;SDS011;5572;49.540;11.932;2024-02-16T22:34:08;1.13;;;1.13;;
11037;SDS011;5572;49.540;11.932;2024-02-16T22:36:35;1.17;;;1.17;;
11037;SDS011;5572;49.540;11.932;2024-02-16T22:39:03;1.00;;;1.00;;
11037;SDS011;5572;49.540;11.932;2024-02-16T22:41:29;0.98;;;0.98;;
11037;SDS011;5572;49.540;11.932;2024-02-16T22:43:56;1.10;;;1.10;;
11037;SDS011;5572;49.540;11.932;2024-02-16T22:46:23;1.17;;;1.17;;
11037;SDS011;5572;49.540;11.932;2024-02-16T22:48:49;1.13;;;1.13;;
11037;SDS011;5572;49.540;11.932;2024-02-16T22:51:16;1.55;;;1.55;;
11037;SDS011;5572;49.540;11.932;2024-02-16T22:53:43;1.00;;;1.00;;
11037;SDS011;5572;49.540;11.932;2024-02-16T22:56:10;1.02;;;1.02;;
11037;SDS011;5572;49.540;11.932;2024-02-16T22:58:37;0.90;;;0.90;;
11037;SDS011;5572;49.540;11.932;2024-02-16T23:01:04;1.05;;;1.05;;
11037;SDS011;5572;49.540;11.932;2024-02-16T23:03:31;1.20;;;1.20;;
11037;SDS011;5572;49.540;11.932;2024-02-16T23:05:57;0.90;;;0.90;;
11037;SDS011;5572;49.540;11.932;2024-02-16T23:08:27;0.80;;;0.80;;
11037;SDS011;5572;49.540;11.932;2024-02-16T23:10:55;0.95;;;0.95;;
11037;SDS011;5572;49.540;11.932;2024-02-16T23:13:22;0.88;;;0.88;;
11037;SDS011;5572;49.540;11.932;2024-02-16T23:15:50;0.90;;;0.90;;
11037;SDS011;5572;49.540;11.932;2024-02-16T23:18:16;0.93;;;0.93;;
11037;SDS011;5572;49.540;11.932;2024-02-16T23:20:45;1.30;;;1.30;;
11037;SDS011;5572;49.540;11.932;2024-02-16T23:23:11;0.85;;;0.85;;
11037;SDS011;5572;49.540;11.932;2024-02-16T23:25:40;0.93;;;0.93;;
11037;SDS011;5572;49.540;11.932;2024-02-16T23:28:08;0.85;;;0.85;;
11037;SDS011;5572;49.540;11.932;2024-02-16T23:30:36;0.90;;;0.90;;
11037;SDS011;5572;49.540;11.932;2024-02-16T23:33:03;0.80;;;0.80;;
11037;SDS011;5572;49.540;11.932;2024-02-16T23:35:30;0.98;;;0.98;;
11037;SDS011;5572;49.540;11.932;2024-02-16T23:37:56;0.63;;;0.63;;
11037;SDS011;5572;49.540;11.932;2024-02-16T23:40:23;1.10;;;1.10;;
11037;SDS011;5572;49.540;11.932;2024-02-16T23:42:49;0.75;;;0.75;;
11037;SDS011;5572;49.540;11.932;2024-02-16T23:45:16;1.02;;;1.02;;
11037;SDS011;5572;49.540;11.932;2024-02-16T23:47:45;0.88;;;0.88;;
11037;SDS011;5572;49.540;11.932;2024-02-16T23:50:12;0.80;;;0.80;;
11037;SDS011;5572;49.540;11.932;2024-02-16T23:52:39;1.10;;;1.10;;
11037;SDS011;5572;49.540;11.932;2024-02-16T23:55:07;0.90;;;0.90;;
11037;SDS011;5572;49.540;11.932;2024-02-16T23:57:34;1.00;;;1.00;;
